sensor_id;sensor_type;location;lat;lon;timestamp;pressure;altitude;pressure_sealevel;temperature;humidity
17209;BME280;8720;48.488;9.202;2023-07-16T00:01:05;96884.31;;;25.02;66.65
17209;BME280;8720;48.488;9.202;2023-07-16T00:03:32;96909.13;;;25.04;66.52
17209;BME280;8720;48.488;9.202;2023-07-16T00:06:00;96920.66;;;25.05;66.42
17209;BME280;8720;48.488;9.202;2023-07-16T00:08:28;96931.63;;;25.02;66.67
17209;BME280;8720;48.488;9.202;2023-07-16T00:10:55;96935.69;;;24.96;67.15
17209;BME280;8720;48.488;9.202;2023-07-16T00:13:23;96925.59;;;24.89;67.26
17209;BME280;8720;48.488;9.202;2023-07-16T00:15:50;96924.78;;;24.77;66.68
17209;BME280;8720;48.488;9.202;2023-07-16T00:18:17;96905.34;;;24.53;66.85
17209;BME280;8720;48.488;9.202;2023-07-16T00:20:44;96943.97;;;24.71;66.67
17209;BME280;8720;48.488;9.202;2023-07-16T00:23:12;96943.38;;;24.68;66.61
17209;BME280;8720;48.488;9.202;2023-07-16T00:25:40;96947.28;;;24.64;66.83
17209;BME280;8720;48.488;9.202;2023-07-16T00:28:08;96955.44;;;24.62;66.72
17209;BME280;8720;48.488;9.202;2023-07-16T00:30:38;96960.16;;;24.59;67.16
17209;BME280;8720;48.488;9.202;2023-07-16T00:33:07;96954.00;;;24.58;67.01
17209;BME280;8720;48.488;9.202;2023-07-16T00:35:34;96932.00;;;24.55;67.12
17209;BME280;8720;48.488;9.202;2023-07-16T00:38:01;96932.81;;;24.55;67.40
17209;BME280;8720;48.488;9.202;2023-07-16T00:40:29;96948.88;;;24.55;66.93
17209;BME280;8720;48.488;9.202;2023-07-16T00:42:57;96946.91;;;24.57;67.37
17209;BME280;8720;48.488;9.202;2023-07-16T00:45:25;96930.53;;;24.51;67.48
17209;BME280;8720;48.488;9.202;2023-07-16T00:47:52;96959.47;;;24.57;67.54
17209;BME280;8720;48.488;9.202;2023-07-16T00:50:20;96955.66;;;24.59;67.29
17209;BME280;8720;48.488;9.202;2023-07-16T00:52:48;96959.06;;;24.61;67.48
17209;BME280;8720;48.488;9.202;2023-07-16T00:55:16;96963.47;;;24.62;67.26
17209;BME280;8720;48.488;9.202;2023-07-16T00:57:45;96953.38;;;24.55;67.42
17209;BME280;8720;48.488;9.202;2023-07-16T01:00:14;96960.06;;;24.60;67.55
17209;BME280;8720;48.488;9.202;2023-07-16T01:02:41;96955.53;;;24.61;67.35
17209;BME280;8720;48.488;9.202;2023-07-16T01:05:09;96962.00;;;24.58;66.76
17209;BME280;8720;48.488;9.202;2023-07-16T01:07:38;96970.53;;;24.52;66.47
17209;BME280;8720;48.488;9.202;2023-07-16T01:10:11;96951.69;;;24.43;65.96
17209;BME280;8720;48.488;9.202;2023-07-16T01:12:39;96943.56;;;24.33;65.68
17209;BME280;8720;48.488;9.202;2023-07-16T01:15:08;96958.88;;;24.20;65.54
17209;BME280;8720;48.488;9.202;2023-07-16T01:17:37;96964.44;;;24.06;65.50
17209;BME280;8720;48.488;9.202;2023-07-16T01:20:06;96964.91;;;24.00;65.20
17209;BME280;8720;48.488;9.202;2023-07-16T01:22:52;96964.88;;;23.89;65.25
17209;BME280;8720;48.488;9.202;2023-07-16T01:26:02;96977.59;;;23.74;65.18
17209;BME280;8720;48.488;9.202;2023-07-16T01:28:53;96984.97;;;23.60;65.73
17209;BME280;8720;48.488;9.202;2023-07-16T01:31:27;96992.59;;;23.53;65.47
17209;BME280;8720;48.488;9.202;2023-07-16T01:33:57;96993.06;;;23.47;65.63
17209;BME280;8720;48.488;9.202;2023-07-16T01:36:27;96995.22;;;23.42;65.10
17209;BME280;8720;48.488;9.202;2023-07-16T01:38:55;96980.22;;;23.28;65.26
17209;BME280;8720;48.488;9.202;2023-07-16T01:41:22;96994.44;;;23.29;65.16
17209;BME280;8720;48.488;9.202;2023-07-16T01:43:50;96987.19;;;23.18;65.44
17209;BME280;8720;48.488;9.202;2023-07-16T01:46:18;96975.16;;;23.13;65.75
17209;BME280;8720;48.488;9.202;2023-07-16T01:48:47;96974.56;;;23.09;65.48
17209;BME280;8720;48.488;9.202;2023-07-16T01:51:14;96977.09;;;23.11;65.55
17209;BME280;8720;48.488;9.202;2023-07-16T01:53:42;96970.41;;;23.05;65.70
17209;BME280;8720;48.488;9.202;2023-07-16T01:56:09;96976.38;;;23.09;66.19
17209;BME280;8720;48.488;9.202;2023-07-16T01:58:36;96976.03;;;23.13;66.21
17209;BME280;8720;48.488;9.202;2023-07-16T02:03:40;96962.31;;;23.18;66.20
17209;BME280;8720;48.488;9.202;2023-07-16T02:06:09;96958.56;;;23.20;66.20
17209;BME280;8720;48.488;9.202;2023-07-16T02:08:36;96955.03;;;23.20;66.28
17209;BME280;8720;48.488;9.202;2023-07-16T02:11:03;96950.56;;;23.20;65.96
17209;BME280;8720;48.488;9.202;2023-07-16T02:13:31;96970.97;;;23.21;66.25
17209;BME280;8720;48.488;9.202;2023-07-16T02:15:59;96970.97;;;23.21;66.16
17209;BME280;8720;48.488;9.202;2023-07-16T02:18:26;96965.50;;;23.23;65.70
17209;BME280;8720;48.488;9.202;2023-07-16T02:20:53;96956.66;;;23.22;66.16
17209;BME280;8720;48.488;9.202;2023-07-16T02:23:22;96942.56;;;23.20;66.19
17209;BME280;8720;48.488;9.202;2023-07-16T02:25:49;96966.38;;;23.23;65.81
17209;BME280;8720;48.488;9.202;2023-07-16T02:28:16;96977.88;;;23.24;65.96
17209;BME280;8720;48.488;9.202;2023-07-16T02:30:43;96990.41;;;23.23;65.97
17209;BME280;8720;48.488;9.202;2023-07-16T02:33:11;96980.56;;;23.24;66.13
17209;BME280;8720;48.488;9.202;2023-07-16T02:35:39;96983.22;;;23.24;66.21
17209;BME280;8720;48.488;9.202;2023-07-16T02:38:06;96990.41;;;23.23;65.91
17209;BME280;8720;48.488;9.202;2023-07-16T02:40:35;96988.69;;;23.22;65.83
17209;BME280;8720;48.488;9.202;2023-07-16T02:43:04;96987.94;;;23.20;65.96
17209;BME280;8720;48.488;9.202;2023-07-16T02:45:32;96996.06;;;23.19;65.85
17209;BME280;8720;48.488;9.202;2023-07-16T02:47:59;97011.34;;;23.17;65.72
17209;BME280;8720;48.488;9.202;2023-07-16T02:50:26;96999.53;;;23.08;65.88
17209;BME280;8720;48.488;9.202;2023-07-16T02:52:54;97013.41;;;23.13;66.13
17209;BME280;8720;48.488;9.202;2023-07-16T02:55:21;97015.31;;;23.11;66.39
17209;BME280;8720;48.488;9.202;2023-07-16T02:57:49;97019.81;;;23.11;65.89
17209;BME280;8720;48.488;9.202;2023-07-16T03:00:17;97030.47;;;23.11;66.34
17209;BME280;8720;48.488;9.202;2023-07-16T03:02:44;97042.13;;;23.10;66.19
17209;BME280;8720;48.488;9.202;2023-07-16T03:05:11;97048.22;;;23.12;66.40
17209;BME280;8720;48.488;9.202;2023-07-16T03:07:39;97042.97;;;23.10;65.99
17209;BME280;8720;48.488;9.202;2023-07-16T03:10:07;97049.50;;;23.06;66.07
17209;BME280;8720;48.488;9.202;2023-07-16T03:12:34;97060.28;;;23.05;65.89
17209;BME280;8720;48.488;9.202;2023-07-16T03:15:04;97047.91;;;23.04;66.16
17209;BME280;8720;48.488;9.202;2023-07-16T03:17:33;97049.72;;;23.03;65.94
17209;BME280;8720;48.488;9.202;2023-07-16T03:20:00;97066.59;;;23.04;66.11
17209;BME280;8720;48.488;9.202;2023-07-16T03:22:30;97067.34;;;23.06;65.96
17209;BME280;8720;48.488;9.202;2023-07-16T03:24:58;97060.16;;;23.06;65.98
17209;BME280;8720;48.488;9.202;2023-07-16T03:27:25;97065.50;;;23.06;65.99
17209;BME280;8720;48.488;9.202;2023-07-16T03:29:57;97073.50;;;23.06;65.78
17209;BME280;8720;48.488;9.202;2023-07-16T03:32:26;97067.22;;;23.07;65.83
17209;BME280;8720;48.488;9.202;2023-07-16T03:34:53;97069.03;;;23.07;65.82
17209;BME280;8720;48.488;9.202;2023-07-16T03:37:20;97070.84;;;23.06;65.87
17209;BME280;8720;48.488;9.202;2023-07-16T03:39:48;97072.56;;;23.07;65.74
17209;BME280;8720;48.488;9.202;2023-07-16T03:42:17;97091.38;;;23.06;65.64
17209;BME280;8720;48.488;9.202;2023-07-16T03:44:44;97089.25;;;22.98;65.74
17209;BME280;8720;48.488;9.202;2023-07-16T03:47:12;97096.91;;;23.03;65.47
17209;BME280;8720;48.488;9.202;2023-07-16T03:49:40;97096.28;;;22.99;65.58
17209;BME280;8720;48.488;9.202;2023-07-16T03:52:08;97102.06;;;22.93;65.52
17209;BME280;8720;48.488;9.202;2023-07-16T03:54:35;97123.53;;;22.92;65.56
17209;BME280;8720;48.488;9.202;2023-07-16T03:57:05;97117.56;;;22.88;65.18
17209;BME280;8720;48.488;9.202;2023-07-16T03:59:33;97095.59;;;22.85;65.31
17209;BME280;8720;48.488;9.202;2023-07-16T04:02:01;97090.69;;;22.79;65.24
17209;BME280;8720;48.488;9.202;2023-07-16T04:04:28;97100.50;;;22.78;64.82
17209;BME280;8720;48.488;9.202;2023-07-16T04:06:56;97097.31;;;22.73;64.87
17209;BME280;8720;48.488;9.202;2023-07-16T04:09:24;97085.16;;;22.69;65.00
17209;BME280;8720;48.488;9.202;2023-07-16T04:11:54;97095.28;;;22.64;65.41
17209;BME280;8720;48.488;9.202;2023-07-16T04:14:21;97099.09;;;22.60;65.43
17209;BME280;8720;48.488;9.202;2023-07-16T04:16:49;97115.13;;;22.60;65.30
17209;BME280;8720;48.488;9.202;2023-07-16T04:19:16;97141.78;;;22.60;65.04
17209;BME280;8720;48.488;9.202;2023-07-16T04:21:43;97139.13;;;22.60;65.34
17209;BME280;8720;48.488;9.202;2023-07-16T04:24:12;97124.09;;;22.59;65.14
17209;BME280;8720;48.488;9.202;2023-07-16T04:26:39;97120.69;;;22.57;65.45
17209;BME280;8720;48.488;9.202;2023-07-16T04:29:06;97124.19;;;22.58;65.04
17209;BME280;8720;48.488;9.202;2023-07-16T04:31:34;97135.91;;;22.55;65.48
17209;BME280;8720;48.488;9.202;2023-07-16T04:34:01;97141.16;;;22.56;65.77
17209;BME280;8720;48.488;9.202;2023-07-16T04:36:28;97135.72;;;22.58;65.48
17209;BME280;8720;48.488;9.202;2023-07-16T04:38:55;97133.91;;;22.58;65.35
17209;BME280;8720;48.488;9.202;2023-07-16T04:41:24;97138.41;;;22.58;65.57
17209;BME280;8720;48.488;9.202;2023-07-16T04:43:51;97146.78;;;22.90;63.22
17209;BME280;8720;48.488;9.202;2023-07-16T04:46:18;97151.19;;;22.78;64.12
17209;BME280;8720;48.488;9.202;2023-07-16T04:48:46;97145.63;;;22.69;64.11
17209;BME280;8720;48.488;9.202;2023-07-16T04:51:13;97155.44;;;22.55;64.36
17209;BME280;8720;48.488;9.202;2023-07-16T04:53:40;97168.56;;;22.58;64.69
17209;BME280;8720;48.488;9.202;2023-07-16T04:56:11;97171.44;;;22.55;64.28
17209;BME280;8720;48.488;9.202;2023-07-16T04:58:41;97171.34;;;22.57;64.44
17209;BME280;8720;48.488;9.202;2023-07-16T05:01:09;97168.75;;;22.55;63.98
17209;BME280;8720;48.488;9.202;2023-07-16T05:03:37;97161.28;;;22.48;64.71
17209;BME280;8720;48.488;9.202;2023-07-16T05:06:05;97178.97;;;22.49;64.33
17209;BME280;8720;48.488;9.202;2023-07-16T05:08:32;97176.31;;;22.49;64.37
17209;BME280;8720;48.488;9.202;2023-07-16T05:10:59;97177.81;;;22.53;64.78
17209;BME280;8720;48.488;9.202;2023-07-16T05:13:26;97182.09;;;22.55;65.17
17209;BME280;8720;48.488;9.202;2023-07-16T05:15:55;97174.66;;;22.61;65.22
17209;BME280;8720;48.488;9.202;2023-07-16T05:18:22;97174.03;;;22.70;65.16
17209;BME280;8720;48.488;9.202;2023-07-16T05:20:49;97165.69;;;22.74;65.03
17209;BME280;8720;48.488;9.202;2023-07-16T05:23:17;97175.19;;;22.78;64.62
17209;BME280;8720;48.488;9.202;2023-07-16T05:25:46;97183.00;;;22.81;64.20
17209;BME280;8720;48.488;9.202;2023-07-16T05:28:14;97170.38;;;22.83;64.57
17209;BME280;8720;48.488;9.202;2023-07-16T05:30:42;97181.91;;;22.84;64.46
17209;BME280;8720;48.488;9.202;2023-07-16T05:33:11;97184.47;;;22.85;64.44
17209;BME280;8720;48.488;9.202;2023-07-16T05:35:39;97183.63;;;22.85;64.60
17209;BME280;8720;48.488;9.202;2023-07-16T05:38:06;97187.03;;;22.87;64.28
17209;BME280;8720;48.488;9.202;2023-07-16T05:40:34;97183.41;;;22.88;64.51
17209;BME280;8720;48.488;9.202;2023-07-16T05:43:01;97184.91;;;22.92;64.25
17209;BME280;8720;48.488;9.202;2023-07-16T05:45:29;97173.91;;;22.96;64.36
17209;BME280;8720;48.488;9.202;2023-07-16T05:47:56;97158.63;;;22.98;64.48
17209;BME280;8720;48.488;9.202;2023-07-16T05:50:25;97153.19;;;23.00;64.40
17209;BME280;8720;48.488;9.202;2023-07-16T05:52:52;97164.72;;;23.00;64.12
17209;BME280;8720;48.488;9.202;2023-07-16T05:55:19;97175.16;;;23.03;64.32
17209;BME280;8720;48.488;9.202;2023-07-16T05:57:46;97192.78;;;23.06;64.09
17209;BME280;8720;48.488;9.202;2023-07-16T06:00:14;97190.88;;;23.08;63.59
17209;BME280;8720;48.488;9.202;2023-07-16T06:02:42;97195.34;;;23.07;63.82
17209;BME280;8720;48.488;9.202;2023-07-16T06:05:09;97210.38;;;23.08;64.07
17209;BME280;8720;48.488;9.202;2023-07-16T06:07:38;97210.19;;;23.11;63.86
17209;BME280;8720;48.488;9.202;2023-07-16T06:10:07;97199.28;;;23.14;63.84
17209;BME280;8720;48.488;9.202;2023-07-16T06:12:34;97199.28;;;23.14;63.84
17209;BME280;8720;48.488;9.202;2023-07-16T06:15:02;97201.94;;;23.14;63.74
17209;BME280;8720;48.488;9.202;2023-07-16T06:17:30;97208.03;;;23.16;63.47
17209;BME280;8720;48.488;9.202;2023-07-16T06:19:57;97199.16;;;23.41;60.81
17209;BME280;8720;48.488;9.202;2023-07-16T06:22:24;97186.66;;;23.29;62.18
17209;BME280;8720;48.488;9.202;2023-07-16T06:24:53;97191.81;;;23.19;62.33
17209;BME280;8720;48.488;9.202;2023-07-16T06:27:20;97184.97;;;23.15;63.14
17209;BME280;8720;48.488;9.202;2023-07-16T06:29:47;97176.00;;;23.16;62.62
17209;BME280;8720;48.488;9.202;2023-07-16T06:32:14;97177.09;;;23.14;62.66
17209;BME280;8720;48.488;9.202;2023-07-16T06:34:41;97175.25;;;23.14;62.60
17209;BME280;8720;48.488;9.202;2023-07-16T06:37:09;97161.81;;;23.16;63.21
17209;BME280;8720;48.488;9.202;2023-07-16T06:39:36;97181.13;;;23.19;63.06
17209;BME280;8720;48.488;9.202;2023-07-16T06:44:33;97205.28;;;23.30;63.18
17209;BME280;8720;48.488;9.202;2023-07-16T06:47:00;97205.78;;;23.35;63.26
17209;BME280;8720;48.488;9.202;2023-07-16T06:49:29;97208.88;;;23.42;63.34
17209;BME280;8720;48.488;9.202;2023-07-16T06:51:57;97214.16;;;23.55;63.25
17209;BME280;8720;48.488;9.202;2023-07-16T06:54:24;97213.59;;;23.75;62.68
17209;BME280;8720;48.488;9.202;2023-07-16T06:56:51;97218.84;;;24.00;62.50
17209;BME280;8720;48.488;9.202;2023-07-16T06:59:20;97213.97;;;24.17;62.17
17209;BME280;8720;48.488;9.202;2023-07-16T07:01:47;97202.34;;;24.29;61.99
17209;BME280;8720;48.488;9.202;2023-07-16T07:04:14;97202.50;;;24.39;61.07
17209;BME280;8720;48.488;9.202;2023-07-16T07:06:41;97188.41;;;24.48;61.26
17209;BME280;8720;48.488;9.202;2023-07-16T07:09:08;97197.81;;;24.65;60.98
17209;BME280;8720;48.488;9.202;2023-07-16T07:11:36;97195.09;;;24.88;60.71
17209;BME280;8720;48.488;9.202;2023-07-16T07:14:03;97194.88;;;25.24;60.90
17209;BME280;8720;48.488;9.202;2023-07-16T07:16:32;97183.19;;;26.01;61.01
17209;BME280;8720;48.488;9.202;2023-07-16T07:18:59;97179.59;;;27.06;59.70
17209;BME280;8720;48.488;9.202;2023-07-16T07:21:26;97185.09;;;28.23;58.43
17209;BME280;8720;48.488;9.202;2023-07-16T07:23:53;97181.94;;;29.41;55.53
17209;BME280;8720;48.488;9.202;2023-07-16T07:26:21;97178.84;;;30.53;53.51
17209;BME280;8720;48.488;9.202;2023-07-16T07:28:48;97172.97;;;31.52;50.72
17209;BME280;8720;48.488;9.202;2023-07-16T07:31:15;97182.56;;;32.38;48.93
17209;BME280;8720;48.488;9.202;2023-07-16T07:33:44;97177.16;;;33.18;47.54
17209;BME280;8720;48.488;9.202;2023-07-16T07:36:11;97184.56;;;33.95;46.06
17209;BME280;8720;48.488;9.202;2023-07-16T07:38:38;97191.59;;;34.65;44.99
17209;BME280;8720;48.488;9.202;2023-07-16T07:41:06;97204.91;;;35.06;43.70
17209;BME280;8720;48.488;9.202;2023-07-16T07:43:33;97202.50;;;35.25;42.75
17209;BME280;8720;48.488;9.202;2023-07-16T07:46:00;97201.22;;;35.50;41.97
17209;BME280;8720;48.488;9.202;2023-07-16T07:48:28;97209.44;;;35.65;41.49
17209;BME280;8720;48.488;9.202;2023-07-16T07:50:56;97210.50;;;35.41;40.60
17209;BME280;8720;48.488;9.202;2023-07-16T07:53:24;97190.41;;;35.28;41.17
17209;BME280;8720;48.488;9.202;2023-07-16T07:55:51;97188.22;;;35.46;41.24
17209;BME280;8720;48.488;9.202;2023-07-16T07:58:18;97204.25;;;35.85;41.13
17209;BME280;8720;48.488;9.202;2023-07-16T08:00:45;97199.00;;;36.33;40.76
17209;BME280;8720;48.488;9.202;2023-07-16T08:03:13;97199.25;;;36.74;39.61
17209;BME280;8720;48.488;9.202;2023-07-16T08:05:40;97203.09;;;36.80;38.51
17209;BME280;8720;48.488;9.202;2023-07-16T08:08:08;97191.84;;;36.68;38.12
17209;BME280;8720;48.488;9.202;2023-07-16T08:10:36;97201.84;;;36.61;38.43
17209;BME280;8720;48.488;9.202;2023-07-16T08:13:03;97205.69;;;36.45;38.37
17209;BME280;8720;48.488;9.202;2023-07-16T08:15:30;97215.94;;;36.29;38.22
17209;BME280;8720;48.488;9.202;2023-07-16T08:17:57;97216.75;;;35.94;38.08
17209;BME280;8720;48.488;9.202;2023-07-16T08:20:25;97204.72;;;35.44;38.79
17209;BME280;8720;48.488;9.202;2023-07-16T08:22:53;97206.00;;;34.97;39.06
17209;BME280;8720;48.488;9.202;2023-07-16T08:25:22;97190.88;;;34.71;39.98
17209;BME280;8720;48.488;9.202;2023-07-16T08:27:49;97198.94;;;34.65;40.67
17209;BME280;8720;48.488;9.202;2023-07-16T08:30:16;97197.84;;;34.74;40.97
17209;BME280;8720;48.488;9.202;2023-07-16T08:32:44;97207.94;;;34.88;41.02
17209;BME280;8720;48.488;9.202;2023-07-16T08:35:12;97200.06;;;34.93;40.46
17209;BME280;8720;48.488;9.202;2023-07-16T08:37:42;97195.34;;;34.87;40.22
17209;BME280;8720;48.488;9.202;2023-07-16T08:40:11;97187.44;;;34.77;39.87
17209;BME280;8720;48.488;9.202;2023-07-16T08:42:40;97201.34;;;34.60;40.37
17209;BME280;8720;48.488;9.202;2023-07-16T08:45:11;97191.75;;;34.49;40.54
17209;BME280;8720;48.488;9.202;2023-07-16T08:47:39;97181.06;;;34.48;40.06
17209;BME280;8720;48.488;9.202;2023-07-16T08:50:10;97184.72;;;34.32;40.38
17209;BME280;8720;48.488;9.202;2023-07-16T08:52:39;97183.16;;;34.07;40.26
17209;BME280;8720;48.488;9.202;2023-07-16T08:55:07;97189.91;;;33.80;39.80
17209;BME280;8720;48.488;9.202;2023-07-16T08:57:36;97174.53;;;33.57;40.24
17209;BME280;8720;48.488;9.202;2023-07-16T09:00:07;97181.88;;;33.32;41.27
17209;BME280;8720;48.488;9.202;2023-07-16T09:02:35;97197.50;;;33.22;41.23
17209;BME280;8720;48.488;9.202;2023-07-16T09:05:04;97215.66;;;33.05;41.32
17209;BME280;8720;48.488;9.202;2023-07-16T09:07:31;97201.91;;;32.91;41.58
17209;BME280;8720;48.488;9.202;2023-07-16T09:09:59;97192.97;;;32.74;42.04
17209;BME280;8720;48.488;9.202;2023-07-16T09:12:27;97211.56;;;32.69;42.20
17209;BME280;8720;48.488;9.202;2023-07-16T09:14:55;97218.88;;;32.61;42.87
17209;BME280;8720;48.488;9.202;2023-07-16T09:17:25;97215.13;;;32.54;43.06
17209;BME280;8720;48.488;9.202;2023-07-16T09:19:52;97214.72;;;32.41;43.29
17209;BME280;8720;48.488;9.202;2023-07-16T09:22:20;97214.53;;;32.34;43.16
17209;BME280;8720;48.488;9.202;2023-07-16T09:24:48;97208.59;;;32.22;42.66
17209;BME280;8720;48.488;9.202;2023-07-16T09:27:15;97209.75;;;32.12;42.99
17209;BME280;8720;48.488;9.202;2023-07-16T09:29:42;97211.75;;;32.02;43.56
17209;BME280;8720;48.488;9.202;2023-07-16T09:32:10;97215.81;;;31.98;44.02
17209;BME280;8720;48.488;9.202;2023-07-16T09:34:38;97210.38;;;31.98;44.64
17209;BME280;8720;48.488;9.202;2023-07-16T09:37:06;97208.72;;;31.97;44.14
17209;BME280;8720;48.488;9.202;2023-07-16T09:39:34;97205.78;;;31.90;43.75
17209;BME280;8720;48.488;9.202;2023-07-16T09:42:03;97206.38;;;31.76;43.67
17209;BME280;8720;48.488;9.202;2023-07-16T09:44:30;97205.00;;;31.64;43.69
17209;BME280;8720;48.488;9.202;2023-07-16T09:46:57;97201.22;;;31.57;43.84
17209;BME280;8720;48.488;9.202;2023-07-16T09:49:28;97194.78;;;31.50;43.50
17209;BME280;8720;48.488;9.202;2023-07-16T09:51:58;97185.94;;;31.40;43.53
17209;BME280;8720;48.488;9.202;2023-07-16T09:54:32;97189.25;;;31.34;44.51
17209;BME280;8720;48.488;9.202;2023-07-16T09:57:04;97188.72;;;31.30;44.51
17209;BME280;8720;48.488;9.202;2023-07-16T09:59:34;97187.03;;;31.29;44.67
17209;BME280;8720;48.488;9.202;2023-07-16T10:02:02;97189.75;;;31.29;44.61
17209;BME280;8720;48.488;9.202;2023-07-16T10:04:38;97192.59;;;31.28;45.35
17209;BME280;8720;48.488;9.202;2023-07-16T10:07:20;97199.00;;;31.27;45.70
17209;BME280;8720;48.488;9.202;2023-07-16T10:09:53;97191.75;;;31.27;45.07
17209;BME280;8720;48.488;9.202;2023-07-16T10:12:23;97193.78;;;31.25;44.34
17209;BME280;8720;48.488;9.202;2023-07-16T10:14:53;97189.84;;;31.20;44.71
17209;BME280;8720;48.488;9.202;2023-07-16T10:17:24;97192.16;;;31.15;44.18
17209;BME280;8720;48.488;9.202;2023-07-16T10:19:57;97197.91;;;31.12;43.98
17209;BME280;8720;48.488;9.202;2023-07-16T10:22:39;97194.53;;;31.10;45.05
17209;BME280;8720;48.488;9.202;2023-07-16T10:25:21;97185.25;;;31.12;44.21
17209;BME280;8720;48.488;9.202;2023-07-16T10:27:51;97186.72;;;31.07;44.45
17209;BME280;8720;48.488;9.202;2023-07-16T10:30:19;97181.75;;;30.94;44.51
17209;BME280;8720;48.488;9.202;2023-07-16T10:32:47;97174.59;;;30.85;44.49
17209;BME280;8720;48.488;9.202;2023-07-16T10:35:14;97170.25;;;30.75;43.98
17209;BME280;8720;48.488;9.202;2023-07-16T10:37:43;97170.78;;;30.61;44.18
17209;BME280;8720;48.488;9.202;2023-07-16T10:40:13;97172.19;;;30.47;44.27
17209;BME280;8720;48.488;9.202;2023-07-16T10:42:42;97172.91;;;30.31;45.09
17209;BME280;8720;48.488;9.202;2023-07-16T10:45:11;97173.50;;;30.25;44.79
17209;BME280;8720;48.488;9.202;2023-07-16T10:47:51;97181.81;;;30.14;45.55
17209;BME280;8720;48.488;9.202;2023-07-16T10:50:20;97180.91;;;30.06;45.16
17209;BME280;8720;48.488;9.202;2023-07-16T10:52:51;97190.69;;;30.07;45.63
17209;BME280;8720;48.488;9.202;2023-07-16T10:55:20;97178.41;;;30.12;45.77
17209;BME280;8720;48.488;9.202;2023-07-16T10:57:48;97176.50;;;30.22;45.59
17209;BME280;8720;48.488;9.202;2023-07-16T11:00:18;97180.19;;;30.31;45.65
17209;BME280;8720;48.488;9.202;2023-07-16T11:02:45;97182.38;;;30.35;45.27
17209;BME280;8720;48.488;9.202;2023-07-16T11:05:14;97188.13;;;30.32;44.88
17209;BME280;8720;48.488;9.202;2023-07-16T11:07:43;97187.00;;;30.25;44.73
17209;BME280;8720;48.488;9.202;2023-07-16T11:10:15;97181.13;;;30.12;44.63
17209;BME280;8720;48.488;9.202;2023-07-16T11:12:43;97186.50;;;30.12;45.25
17209;BME280;8720;48.488;9.202;2023-07-16T11:15:11;97185.53;;;30.13;45.23
17209;BME280;8720;48.488;9.202;2023-07-16T11:17:38;97192.16;;;30.19;45.87
17209;BME280;8720;48.488;9.202;2023-07-16T11:20:08;97175.09;;;30.18;45.03
17209;BME280;8720;48.488;9.202;2023-07-16T11:22:38;97177.63;;;30.29;45.41
17209;BME280;8720;48.488;9.202;2023-07-16T11:25:13;97181.84;;;30.32;44.61
17209;BME280;8720;48.488;9.202;2023-07-16T11:27:41;97182.00;;;30.30;45.01
17209;BME280;8720;48.488;9.202;2023-07-16T11:30:10;97183.03;;;30.29;44.39
17209;BME280;8720;48.488;9.202;2023-07-16T11:32:42;97171.78;;;30.24;44.92
17209;BME280;8720;48.488;9.202;2023-07-16T11:35:16;97177.03;;;30.26;45.20
17209;BME280;8720;48.488;9.202;2023-07-16T11:37:45;97173.06;;;30.30;45.03
17209;BME280;8720;48.488;9.202;2023-07-16T11:40:17;97182.38;;;30.35;45.59
17209;BME280;8720;48.488;9.202;2023-07-16T11:42:45;97184.63;;;30.40;45.12
17209;BME280;8720;48.488;9.202;2023-07-16T11:45:18;97170.97;;;30.41;45.47
17209;BME280;8720;48.488;9.202;2023-07-16T11:47:45;97178.16;;;30.51;45.23
17209;BME280;8720;48.488;9.202;2023-07-16T11:50:13;97175.13;;;30.54;45.14
17209;BME280;8720;48.488;9.202;2023-07-16T11:52:41;97176.81;;;30.55;45.17
17209;BME280;8720;48.488;9.202;2023-07-16T11:55:09;97174.13;;;30.55;45.04
17209;BME280;8720;48.488;9.202;2023-07-16T11:57:37;97166.34;;;30.52;44.93
17209;BME280;8720;48.488;9.202;2023-07-16T12:00:06;97165.66;;;30.50;44.98
17209;BME280;8720;48.488;9.202;2023-07-16T12:02:34;97160.25;;;30.50;45.42
17209;BME280;8720;48.488;9.202;2023-07-16T12:05:01;97158.56;;;30.49;45.11
17209;BME280;8720;48.488;9.202;2023-07-16T12:07:33;97147.34;;;30.43;45.09
17209;BME280;8720;48.488;9.202;2023-07-16T12:10:01;97149.53;;;30.40;44.63
17209;BME280;8720;48.488;9.202;2023-07-16T12:12:29;97142.75;;;30.36;44.30
17209;BME280;8720;48.488;9.202;2023-07-16T12:14:58;97134.44;;;30.29;44.29
17209;BME280;8720;48.488;9.202;2023-07-16T12:17:26;97136.00;;;30.22;44.35
17209;BME280;8720;48.488;9.202;2023-07-16T12:19:53;97135.78;;;30.16;44.63
17209;BME280;8720;48.488;9.202;2023-07-16T12:22:21;97120.34;;;30.08;44.90
17209;BME280;8720;48.488;9.202;2023-07-16T12:24:48;97114.41;;;30.05;44.84
17209;BME280;8720;48.488;9.202;2023-07-16T12:27:18;97125.38;;;30.03;44.70
17209;BME280;8720;48.488;9.202;2023-07-16T12:29:46;97125.38;;;30.03;44.90
17209;BME280;8720;48.488;9.202;2023-07-16T12:32:15;97119.00;;;30.04;45.51
17209;BME280;8720;48.488;9.202;2023-07-16T12:34:42;97119.81;;;30.05;45.00
17209;BME280;8720;48.488;9.202;2023-07-16T12:37:10;97125.06;;;30.06;44.95
17209;BME280;8720;48.488;9.202;2023-07-16T12:39:37;97114.41;;;30.05;45.76
17209;BME280;8720;48.488;9.202;2023-07-16T12:42:06;97112.41;;;30.07;45.04
17209;BME280;8720;48.488;9.202;2023-07-16T12:44:34;97108.72;;;30.08;45.44
17209;BME280;8720;48.488;9.202;2023-07-16T12:47:01;97113.63;;;30.12;45.71
17209;BME280;8720;48.488;9.202;2023-07-16T12:49:29;97108.47;;;30.19;45.75
17209;BME280;8720;48.488;9.202;2023-07-16T12:51:57;97116.53;;;30.28;45.39
17209;BME280;8720;48.488;9.202;2023-07-16T12:54:24;97116.44;;;30.38;45.18
17209;BME280;8720;48.488;9.202;2023-07-16T12:56:51;97116.34;;;30.48;45.03
17209;BME280;8720;48.488;9.202;2023-07-16T12:59:18;97099.19;;;30.57;44.93
17209;BME280;8720;48.488;9.202;2023-07-16T13:01:46;97111.06;;;30.64;44.74
17209;BME280;8720;48.488;9.202;2023-07-16T13:04:13;97110.09;;;30.73;44.58
17209;BME280;8720;48.488;9.202;2023-07-16T13:06:42;97107.47;;;30.81;44.06
17209;BME280;8720;48.488;9.202;2023-07-16T13:09:11;97112.09;;;30.88;44.56
17209;BME280;8720;48.488;9.202;2023-07-16T13:11:38;97105.03;;;30.95;44.02
17209;BME280;8720;48.488;9.202;2023-07-16T13:14:05;97110.31;;;30.97;44.10
17209;BME280;8720;48.488;9.202;2023-07-16T13:16:33;97117.75;;;31.03;44.03
17209;BME280;8720;48.488;9.202;2023-07-16T13:19:00;97114.75;;;31.06;43.65
17209;BME280;8720;48.488;9.202;2023-07-16T13:21:27;97111.88;;;31.07;43.36